HAAB/ADD METAR and TAF weather

Enter ICAO airport designator
Station Type Date Time Source
HAAB METAR 2019/06/18 11:00 UTC NOAA

HAAB 181100Z 22006KT 9000 -RA FEW CB025 BKN026 OVC070 18/15 Q1027


Station Type Date Time Source
HAAB Decoded METAR 2019/06/18 11:00 UTC NOAA

Addis Ababa, Ethiopia (HAAB) 08-59N 038-48E 2324M
Jun 18, 2019 - 07:00 AM EDT / 2019.06.18 1100 UTC
Wind: from the SW (220 degrees) at 7 MPH (6 KT):0
Visibility: 5 mile(s):0
Sky conditions: overcast
Weather: light rain; Cumulonimbus clouds observed
Temperature: 64 F (18 C)
Dew Point: 59 F (15 C)
Relative Humidity: 82%
Pressure (altimeter): 30.33 in. Hg (1027 hPa)
ob: HAAB 181100Z 22006KT 9000 -RA FEW CB025 BKN026 OVC070 18/15 Q1027
cycle: 11

Station Type Date Time Source
HAAB TAF 2019/06/18 12:21 UTC NOAA

TAF TAF HAAB 180930Z 1812/1918 32006KTB 9999 -RA SCT030 SCT090
BECMG 1813/1817 24009KT 8000 BKN020 FEW020 CB

Example: see airport list